Terminal Aerodrome Forecast
Issued by NWS

Home | Current Version | Previous Version | Graphics & Text | Print | Product List | Glossary On
Versions: 1 2 3 4 5 6 7 8 9 10 11 12 13 14 15 16 17 18 19 20
000
FTUS43 KMPX 252300 RRA
TAFRNH
TAF
KRNH 252347Z 2600/2624 18003KT P6SM FEW025 OVC035
      TEMPO 2604/2608 5SM BR OVC025
     FM260800 00000KT 3SM BR OVC018
     FM261400 27004KT P6SM SCT020 SCT120
     FM261700 25008KT P6SM FEW035 SCT120=

USA.gov is the U.S. government's official web portal to all federal, state and local government web resources and services.